sensor_id;sensor_type;location;lat;lon;timestamp;pressure;altitude;pressure_sealevel;temperature;humidity
15884;BME280;8040;50.254;10.960;2023-10-08T00:01:28;98752.94;;;15.70;83.87
15884;BME280;8040;50.254;10.960;2023-10-08T00:03:54;98735.38;;;15.62;83.69
15884;BME280;8040;50.254;10.960;2023-10-08T00:06:23;98754.88;;;15.78;83.44
15884;BME280;8040;50.254;10.960;2023-10-08T00:08:50;98763.25;;;15.81;83.44
15884;BME280;8040;50.254;10.960;2023-10-08T00:11:16;98735.56;;;15.66;83.32
15884;BME280;8040;50.254;10.960;2023-10-08T00:13:42;98732.81;;;15.66;83.03
15884;BME280;8040;50.254;10.960;2023-10-08T00:16:10;98711.75;;;15.58;83.02
15884;BME280;8040;50.254;10.960;2023-10-08T00:18:37;98731.69;;;15.75;82.51
15884;BME280;8040;50.254;10.960;2023-10-08T00:21:06;98732.34;;;15.81;82.30
15884;BME280;8040;50.254;10.960;2023-10-08T00:23:38;98719.31;;;15.78;82.21
15884;BME280;8040;50.254;10.960;2023-10-08T00:26:36;98719.63;;;15.76;82.13
15884;BME280;8040;50.254;10.960;2023-10-08T00:29:06;98702.88;;;15.61;81.99
15884;BME280;8040;50.254;10.960;2023-10-08T00:31:40;98751.03;;;15.87;82.30
15884;BME280;8040;50.254;10.960;2023-10-08T00:34:07;98751.50;;;15.89;82.08
15884;BME280;8040;50.254;10.960;2023-10-08T00:36:37;98745.38;;;15.75;82.25
15884;BME280;8040;50.254;10.960;2023-10-08T00:39:07;98735.25;;;15.76;82.04
15884;BME280;8040;50.254;10.960;2023-10-08T00:41:38;98751.31;;;15.86;82.17
15884;BME280;8040;50.254;10.960;2023-10-08T00:44:07;98754.88;;;15.86;82.09
15884;BME280;8040;50.254;10.960;2023-10-08T00:46:33;98749.25;;;15.83;82.05
15884;BME280;8040;50.254;10.960;2023-10-08T00:49:08;98721.22;;;15.77;82.02
15884;BME280;8040;50.254;10.960;2023-10-08T00:51:56;98725.75;;;15.82;81.78
15884;BME280;8040;50.254;10.960;2023-10-08T00:54:38;98719.16;;;15.74;81.90
15884;BME280;8040;50.254;10.960;2023-10-08T00:57:26;98724.31;;;15.76;81.95
15884;BME280;8040;50.254;10.960;2023-10-08T00:59:52;98757.78;;;15.90;81.98
15884;BME280;8040;50.254;10.960;2023-10-08T01:02:26;98722.19;;;15.73;82.00
15884;BME280;8040;50.254;10.960;2023-10-08T01:04:54;98720.13;;;15.70;81.99
15884;BME280;8040;50.254;10.960;2023-10-08T01:07:24;98733.97;;;15.73;82.24
15884;BME280;8040;50.254;10.960;2023-10-08T01:09:50;98712.69;;;15.62;82.19
15884;BME280;8040;50.254;10.960;2023-10-08T01:12:20;98736.72;;;15.82;82.50
15884;BME280;8040;50.254;10.960;2023-10-08T01:14:53;98733.81;;;15.78;82.74
15884;BME280;8040;50.254;10.960;2023-10-08T01:17:21;98742.00;;;15.70;82.63
15884;BME280;8040;50.254;10.960;2023-10-08T01:19:50;98739.75;;;15.72;82.98
15884;BME280;8040;50.254;10.960;2023-10-08T01:22:36;98708.03;;;15.54;83.10
15884;BME280;8040;50.254;10.960;2023-10-08T01:25:06;98732.50;;;15.59;83.25
15884;BME280;8040;50.254;10.960;2023-10-08T01:27:35;98689.63;;;15.29;83.77
15884;BME280;8040;50.254;10.960;2023-10-08T01:30:00;98737.66;;;15.60;83.97
15884;BME280;8040;50.254;10.960;2023-10-08T01:32:44;98737.94;;;15.50;84.24
15884;BME280;8040;50.254;10.960;2023-10-08T01:35:10;98741.16;;;15.52;84.18
15884;BME280;8040;50.254;10.960;2023-10-08T01:37:50;98727.47;;;15.44;84.19
15884;BME280;8040;50.254;10.960;2023-10-08T01:40:17;98723.13;;;15.43;84.43
15884;BME280;8040;50.254;10.960;2023-10-08T01:42:43;98703.78;;;15.31;84.50
15884;BME280;8040;50.254;10.960;2023-10-08T01:45:08;98706.72;;;15.34;84.48
15884;BME280;8040;50.254;10.960;2023-10-08T01:47:38;98731.03;;;15.53;84.46
15884;BME280;8040;50.254;10.960;2023-10-08T01:50:04;98739.88;;;15.50;84.73
15884;BME280;8040;50.254;10.960;2023-10-08T01:52:33;98714.44;;;15.32;84.69
15884;BME280;8040;50.254;10.960;2023-10-08T01:55:00;98697.84;;;15.29;84.91
15884;BME280;8040;50.254;10.960;2023-10-08T01:57:25;98699.59;;;15.25;84.86
15884;BME280;8040;50.254;10.960;2023-10-08T01:59:50;98711.47;;;15.20;84.76
15884;BME280;8040;50.254;10.960;2023-10-08T02:02:16;98749.34;;;15.44;85.23
15884;BME280;8040;50.254;10.960;2023-10-08T02:04:41;98727.78;;;15.34;85.23
15884;BME280;8040;50.254;10.960;2023-10-08T02:07:07;98738.25;;;15.40;85.09
15884;BME280;8040;50.254;10.960;2023-10-08T02:09:41;98721.31;;;15.30;85.53
15884;BME280;8040;50.254;10.960;2023-10-08T02:12:07;98710.22;;;15.26;85.22
15884;BME280;8040;50.254;10.960;2023-10-08T02:14:33;98735.03;;;15.38;85.38
15884;BME280;8040;50.254;10.960;2023-10-08T02:17:01;98712.94;;;15.26;85.43
15884;BME280;8040;50.254;10.960;2023-10-08T02:19:34;98700.69;;;15.15;85.59
15884;BME280;8040;50.254;10.960;2023-10-08T02:22:01;98728.38;;;15.31;85.55
15884;BME280;8040;50.254;10.960;2023-10-08T02:24:28;98724.53;;;15.32;85.92
15884;BME280;8040;50.254;10.960;2023-10-08T02:26:55;98740.34;;;15.43;85.81
15884;BME280;8040;50.254;10.960;2023-10-08T02:29:25;98705.69;;;15.22;85.77
15884;BME280;8040;50.254;10.960;2023-10-08T02:31:51;98739.84;;;15.41;86.04
15884;BME280;8040;50.254;10.960;2023-10-08T02:34:18;98714.69;;;15.22;85.84
15884;BME280;8040;50.254;10.960;2023-10-08T02:36:45;98752.06;;;15.44;85.77
15884;BME280;8040;50.254;10.960;2023-10-08T02:39:13;98735.84;;;15.39;85.80
15884;BME280;8040;50.254;10.960;2023-10-08T02:41:51;98737.22;;;15.28;86.08
15884;BME280;8040;50.254;10.960;2023-10-08T02:44:18;98748.06;;;15.33;85.79
15884;BME280;8040;50.254;10.960;2023-10-08T02:46:47;98754.31;;;15.33;86.02
15884;BME280;8040;50.254;10.960;2023-10-08T02:49:19;98774.59;;;15.41;85.94
15884;BME280;8040;50.254;10.960;2023-10-08T02:51:46;98761.72;;;15.33;86.11
15884;BME280;8040;50.254;10.960;2023-10-08T02:54:12;98779.59;;;15.39;86.29
15884;BME280;8040;50.254;10.960;2023-10-08T02:56:48;98747.78;;;15.12;86.48
15884;BME280;8040;50.254;10.960;2023-10-08T02:59:17;98781.44;;;15.30;86.84
15884;BME280;8040;50.254;10.960;2023-10-08T03:01:42;98742.78;;;15.06;86.96
15884;BME280;8040;50.254;10.960;2023-10-08T03:04:11;98793.69;;;15.32;87.19
15884;BME280;8040;50.254;10.960;2023-10-08T03:06:45;98767.38;;;15.06;88.07
15884;BME280;8040;50.254;10.960;2023-10-08T03:09:19;98793.16;;;15.22;87.97
15884;BME280;8040;50.254;10.960;2023-10-08T03:11:49;98789.44;;;15.18;87.70
15884;BME280;8040;50.254;10.960;2023-10-08T03:14:16;98780.41;;;15.09;87.68
15884;BME280;8040;50.254;10.960;2023-10-08T03:16:51;98802.78;;;15.19;88.18
15884;BME280;8040;50.254;10.960;2023-10-08T03:19:18;98773.97;;;15.05;88.53
15884;BME280;8040;50.254;10.960;2023-10-08T03:21:49;98786.50;;;15.06;89.08
15884;BME280;8040;50.254;10.960;2023-10-08T03:24:20;98783.91;;;15.01;89.17
15884;BME280;8040;50.254;10.960;2023-10-08T03:26:59;98814.81;;;15.10;89.66
15884;BME280;8040;50.254;10.960;2023-10-08T03:29:48;98814.13;;;15.04;90.19
15884;BME280;8040;50.254;10.960;2023-10-08T03:32:14;98798.34;;;14.93;90.34
15884;BME280;8040;50.254;10.960;2023-10-08T03:34:47;98791.22;;;14.83;90.37
15884;BME280;8040;50.254;10.960;2023-10-08T03:37:17;98804.22;;;14.86;90.74
15884;BME280;8040;50.254;10.960;2023-10-08T03:39:47;98787.94;;;14.73;90.87
15884;BME280;8040;50.254;10.960;2023-10-08T03:42:23;98788.31;;;14.80;91.50
15884;BME280;8040;50.254;10.960;2023-10-08T03:44:52;98795.72;;;14.88;91.74
15884;BME280;8040;50.254;10.960;2023-10-08T03:47:21;98777.03;;;14.73;91.76
15884;BME280;8040;50.254;10.960;2023-10-08T03:49:51;98791.34;;;14.78;92.13
15884;BME280;8040;50.254;10.960;2023-10-08T03:52:17;98797.63;;;14.79;92.00
15884;BME280;8040;50.254;10.960;2023-10-08T03:54:47;98811.63;;;14.86;92.27
15884;BME280;8040;50.254;10.960;2023-10-08T03:57:30;98749.69;;;14.42;92.38
15884;BME280;8040;50.254;10.960;2023-10-08T04:00:10;98813.84;;;14.75;92.51
15884;BME280;8040;50.254;10.960;2023-10-08T04:02:58;98791.25;;;14.61;93.09
15884;BME280;8040;50.254;10.960;2023-10-08T04:05:27;98767.72;;;14.52;93.04
15884;BME280;8040;50.254;10.960;2023-10-08T04:08:09;98762.59;;;14.50;93.41
15884;BME280;8040;50.254;10.960;2023-10-08T04:11:08;98786.19;;;14.77;93.44
15884;BME280;8040;50.254;10.960;2023-10-08T04:13:52;98805.31;;;14.77;93.96
15884;BME280;8040;50.254;10.960;2023-10-08T04:16:18;98796.63;;;14.75;93.88
15884;BME280;8040;50.254;10.960;2023-10-08T04:18:46;98786.28;;;14.63;94.09
15884;BME280;8040;50.254;10.960;2023-10-08T04:21:17;98801.59;;;14.73;94.26
15884;BME280;8040;50.254;10.960;2023-10-08T04:23:46;98793.59;;;14.76;94.52
15884;BME280;8040;50.254;10.960;2023-10-08T04:26:11;98734.13;;;14.43;94.54
15884;BME280;8040;50.254;10.960;2023-10-08T04:28:38;98744.78;;;14.53;94.63
15884;BME280;8040;50.254;10.960;2023-10-08T04:31:04;98753.97;;;14.57;94.85
15884;BME280;8040;50.254;10.960;2023-10-08T04:33:44;98726.72;;;14.43;94.90
15884;BME280;8040;50.254;10.960;2023-10-08T04:36:10;98725.19;;;14.51;95.01
15884;BME280;8040;50.254;10.960;2023-10-08T04:38:43;98766.72;;;14.70;95.06
15884;BME280;8040;50.254;10.960;2023-10-08T04:41:10;98743.53;;;14.59;95.16
15884;BME280;8040;50.254;10.960;2023-10-08T04:43:36;98754.19;;;14.69;95.28
15884;BME280;8040;50.254;10.960;2023-10-08T04:46:03;98751.69;;;14.81;95.04
15884;BME280;8040;50.254;10.960;2023-10-08T04:48:45;98741.56;;;14.81;95.04
15884;BME280;8040;50.254;10.960;2023-10-08T04:51:11;98731.56;;;14.77;94.85
15884;BME280;8040;50.254;10.960;2023-10-08T04:53:38;98746.44;;;14.93;94.80
15884;BME280;8040;50.254;10.960;2023-10-08T04:56:11;98756.53;;;14.92;94.41
15884;BME280;8040;50.254;10.960;2023-10-08T04:58:46;98767.69;;;15.04;94.31
15884;BME280;8040;50.254;10.960;2023-10-08T05:01:15;98730.50;;;14.95;93.95
15884;BME280;8040;50.254;10.960;2023-10-08T05:03:56;98736.53;;;15.05;93.48
15884;BME280;8040;50.254;10.960;2023-10-08T05:06:26;98702.28;;;15.08;93.01
15884;BME280;8040;50.254;10.960;2023-10-08T05:09:09;98729.31;;;15.18;92.33
15884;BME280;8040;50.254;10.960;2023-10-08T05:11:55;98700.38;;;15.17;92.77
15884;BME280;8040;50.254;10.960;2023-10-08T05:14:22;98689.94;;;15.19;92.89
15884;BME280;8040;50.254;10.960;2023-10-08T05:16:57;98736.94;;;15.38;92.99
15884;BME280;8040;50.254;10.960;2023-10-08T05:19:29;98714.69;;;15.22;93.81
15884;BME280;8040;50.254;10.960;2023-10-08T05:22:17;98728.03;;;15.24;94.67
15884;BME280;8040;50.254;10.960;2023-10-08T05:24:56;98741.31;;;15.39;94.67
15884;BME280;8040;50.254;10.960;2023-10-08T05:27:41;98733.84;;;15.31;94.79
15884;BME280;8040;50.254;10.960;2023-10-08T05:30:17;98729.03;;;15.28;95.01
15884;BME280;8040;50.254;10.960;2023-10-08T05:33:01;98712.78;;;15.23;95.39
15884;BME280;8040;50.254;10.960;2023-10-08T05:35:43;98739.50;;;15.34;95.56
15884;BME280;8040;50.254;10.960;2023-10-08T05:38:13;98727.56;;;15.22;96.02
15884;BME280;8040;50.254;10.960;2023-10-08T05:40:44;98760.59;;;15.34;96.36
15884;BME280;8040;50.254;10.960;2023-10-08T05:43:35;98783.41;;;15.38;96.86
15884;BME280;8040;50.254;10.960;2023-10-08T05:46:08;98783.59;;;15.41;96.76
15884;BME280;8040;50.254;10.960;2023-10-08T05:48:50;98758.41;;;15.22;96.11
15884;BME280;8040;50.254;10.960;2023-10-08T05:51:37;98804.19;;;15.39;95.92
15884;BME280;8040;50.254;10.960;2023-10-08T05:54:31;98815.59;;;15.41;95.78
15884;BME280;8040;50.254;10.960;2023-10-08T05:57:07;98816.22;;;15.38;95.92
15884;BME280;8040;50.254;10.960;2023-10-08T05:59:45;98810.94;;;15.41;96.52
15884;BME280;8040;50.254;10.960;2023-10-08T06:02:20;98794.53;;;15.33;95.31
15884;BME280;8040;50.254;10.960;2023-10-08T06:04:59;98774.97;;;15.26;95.21
15884;BME280;8040;50.254;10.960;2023-10-08T06:07:44;98832.25;;;15.61;95.25
15884;BME280;8040;50.254;10.960;2023-10-08T06:10:15;98832.41;;;15.65;95.39
15884;BME280;8040;50.254;10.960;2023-10-08T06:13:09;98810.03;;;15.54;95.40
15884;BME280;8040;50.254;10.960;2023-10-08T06:15:56;98829.81;;;15.60;95.24
15884;BME280;8040;50.254;10.960;2023-10-08T06:18:22;98864.44;;;15.73;95.10
15884;BME280;8040;50.254;10.960;2023-10-08T06:21:05;98854.16;;;15.70;94.36
15884;BME280;8040;50.254;10.960;2023-10-08T06:23:35;98811.81;;;15.59;94.15
15884;BME280;8040;50.254;10.960;2023-10-08T06:26:02;98786.19;;;15.55;93.36
15884;BME280;8040;50.254;10.960;2023-10-08T06:28:41;98792.69;;;15.67;93.37
15884;BME280;8040;50.254;10.960;2023-10-08T06:31:07;98810.72;;;15.85;93.47
15884;BME280;8040;50.254;10.960;2023-10-08T06:33:40;98790.59;;;15.73;93.76
15884;BME280;8040;50.254;10.960;2023-10-08T06:36:06;98799.78;;;15.85;94.07
15884;BME280;8040;50.254;10.960;2023-10-08T06:38:38;98788.66;;;15.73;94.46
15884;BME280;8040;50.254;10.960;2023-10-08T06:41:08;98811.69;;;15.89;95.06
15884;BME280;8040;50.254;10.960;2023-10-08T06:43:36;98815.38;;;15.85;95.31
15884;BME280;8040;50.254;10.960;2023-10-08T06:46:05;98810.72;;;15.85;95.70
15884;BME280;8040;50.254;10.960;2023-10-08T06:48:40;98835.38;;;15.94;95.45
15884;BME280;8040;50.254;10.960;2023-10-08T06:51:11;98863.06;;;16.01;94.74
15884;BME280;8040;50.254;10.960;2023-10-08T06:53:44;98822.25;;;15.65;93.81
15884;BME280;8040;50.254;10.960;2023-10-08T06:56:11;98884.63;;;16.10;93.33
15884;BME280;8040;50.254;10.960;2023-10-08T06:58:38;98903.03;;;16.18;92.76
15884;BME280;8040;50.254;10.960;2023-10-08T07:01:04;98858.34;;;15.93;92.50
15884;BME280;8040;50.254;10.960;2023-10-08T07:03:33;98900.28;;;16.18;91.77
15884;BME280;8040;50.254;10.960;2023-10-08T07:06:03;98886.91;;;16.08;91.33
15884;BME280;8040;50.254;10.960;2023-10-08T07:08:42;98913.00;;;16.14;91.43
15884;BME280;8040;50.254;10.960;2023-10-08T07:11:08;98901.22;;;16.14;90.66
15884;BME280;8040;50.254;10.960;2023-10-08T07:13:37;98911.09;;;16.23;90.02
15884;BME280;8040;50.254;10.960;2023-10-08T07:16:04;98914.47;;;16.29;89.50
15884;BME280;8040;50.254;10.960;2023-10-08T07:18:37;98934.81;;;16.45;89.74
15884;BME280;8040;50.254;10.960;2023-10-08T07:21:03;98933.03;;;16.57;89.68
15884;BME280;8040;50.254;10.960;2023-10-08T07:23:37;98916.28;;;16.50;88.84
15884;BME280;8040;50.254;10.960;2023-10-08T07:26:04;98930.47;;;16.69;87.51
15884;BME280;8040;50.254;10.960;2023-10-08T07:28:42;98915.63;;;16.53;87.13
15884;BME280;8040;50.254;10.960;2023-10-08T07:31:20;98914.53;;;16.54;86.68
15884;BME280;8040;50.254;10.960;2023-10-08T07:33:50;98925.50;;;16.63;86.10
15884;BME280;8040;50.254;10.960;2023-10-08T07:36:28;98957.56;;;16.79;86.07
15884;BME280;8040;50.254;10.960;2023-10-08T07:38:56;98920.16;;;16.66;85.13
15884;BME280;8040;50.254;10.960;2023-10-08T07:41:22;98907.56;;;16.74;85.45
15884;BME280;8040;50.254;10.960;2023-10-08T07:43:49;98906.44;;;16.92;84.51
15884;BME280;8040;50.254;10.960;2023-10-08T07:46:24;98874.84;;;16.94;83.39
15884;BME280;8040;50.254;10.960;2023-10-08T07:48:54;98866.13;;;17.01;83.88
15884;BME280;8040;50.254;10.960;2023-10-08T07:51:20;98872.22;;;17.15;84.05
15884;BME280;8040;50.254;10.960;2023-10-08T07:53:52;98826.03;;;16.88;84.08
15884;BME280;8040;50.254;10.960;2023-10-08T07:56:25;98834.84;;;16.93;84.68
15884;BME280;8040;50.254;10.960;2023-10-08T07:58:54;98864.00;;;17.06;85.31
15884;BME280;8040;50.254;10.960;2023-10-08T08:01:23;98882.22;;;17.02;84.98
15884;BME280;8040;50.254;10.960;2023-10-08T08:03:52;98884.97;;;17.02;85.03
15884;BME280;8040;50.254;10.960;2023-10-08T08:06:17;98881.28;;;16.98;85.37
15884;BME280;8040;50.254;10.960;2023-10-08T08:08:43;98876.09;;;17.05;85.61
15884;BME280;8040;50.254;10.960;2023-10-08T08:11:09;98874.00;;;17.02;86.18
15884;BME280;8040;50.254;10.960;2023-10-08T08:13:42;98858.69;;;17.01;85.91
15884;BME280;8040;50.254;10.960;2023-10-08T08:16:09;98858.81;;;17.13;85.71
15884;BME280;8040;50.254;10.960;2023-10-08T08:18:42;98844.19;;;17.09;85.51
15884;BME280;8040;50.254;10.960;2023-10-08T08:21:10;98883.13;;;17.40;85.27
15884;BME280;8040;50.254;10.960;2023-10-08T08:23:46;98873.63;;;17.29;84.80
15884;BME280;8040;50.254;10.960;2023-10-08T08:26:15;98903.41;;;17.48;85.03
15884;BME280;8040;50.254;10.960;2023-10-08T08:28:53;98908.47;;;17.37;83.95
15884;BME280;8040;50.254;10.960;2023-10-08T08:31:20;98915.88;;;17.45;83.69
15884;BME280;8040;50.254;10.960;2023-10-08T08:33:45;98896.41;;;17.21;82.97
15884;BME280;8040;50.254;10.960;2023-10-08T08:36:27;98914.44;;;17.31;82.96
15884;BME280;8040;50.254;10.960;2023-10-08T08:38:52;98935.25;;;17.40;82.83
15884;BME280;8040;50.254;10.960;2023-10-08T08:41:21;98943.13;;;17.42;82.59
15884;BME280;8040;50.254;10.960;2023-10-08T08:43:52;98947.81;;;17.41;82.66
15884;BME280;8040;50.254;10.960;2023-10-08T08:46:32;98942.34;;;17.24;82.90
15884;BME280;8040;50.254;10.960;2023-10-08T08:49:07;98942.34;;;17.24;82.87
15884;BME280;8040;50.254;10.960;2023-10-08T08:51:35;98920.94;;;17.18;83.22
15884;BME280;8040;50.254;10.960;2023-10-08T08:54:01;98955.22;;;17.32;83.63
15884;BME280;8040;50.254;10.960;2023-10-08T08:56:33;98953.47;;;17.19;82.57
15884;BME280;8040;50.254;10.960;2023-10-08T08:59:01;98931.75;;;16.97;82.54
15884;BME280;8040;50.254;10.960;2023-10-08T09:01:27;98969.78;;;17.07;82.92
15884;BME280;8040;50.254;10.960;2023-10-08T09:04:01;98974.47;;;17.07;83.31
15884;BME280;8040;50.254;10.960;2023-10-08T09:06:30;98987.34;;;17.06;83.84
15884;BME280;8040;50.254;10.960;2023-10-08T09:08:59;98992.22;;;17.09;84.19
15884;BME280;8040;50.254;10.960;2023-10-08T09:11:42;98999.78;;;17.12;84.24
15884;BME280;8040;50.254;10.960;2023-10-08T09:14:08;98976.41;;;16.98;84.57
15884;BME280;8040;50.254;10.960;2023-10-08T09:16:35;98988.81;;;17.04;85.21
15884;BME280;8040;50.254;10.960;2023-10-08T09:19:02;99011.88;;;17.11;86.19
15884;BME280;8040;50.254;10.960;2023-10-08T09:21:28;98986.56;;;17.06;87.35
15884;BME280;8040;50.254;10.960;2023-10-08T09:23:55;98956.59;;;16.84;88.34
15884;BME280;8040;50.254;10.960;2023-10-08T09:26:24;98987.34;;;16.98;88.77
15884;BME280;8040;50.254;10.960;2023-10-08T09:28:50;99001.88;;;17.07;89.22
15884;BME280;8040;50.254;10.960;2023-10-08T09:31:17;99014.78;;;17.06;89.30
15884;BME280;8040;50.254;10.960;2023-10-08T09:33:43;98970.13;;;16.72;89.02
15884;BME280;8040;50.254;10.960;2023-10-08T09:36:18;99019.91;;;16.65;89.02
15884;BME280;8040;50.254;10.960;2023-10-08T09:38:45;99051.28;;;16.42;86.51
15884;BME280;8040;50.254;10.960;2023-10-08T09:41:14;99042.88;;;15.70;86.05
15884;BME280;8040;50.254;10.960;2023-10-08T09:43:41;99058.44;;;15.39;87.77
15884;BME280;8040;50.254;10.960;2023-10-08T09:46:19;99046.22;;;15.23;87.81
15884;BME280;8040;50.254;10.960;2023-10-08T09:48:52;99029.69;;;15.06;88.37
15884;BME280;8040;50.254;10.960;2023-10-08T09:51:20;99044.38;;;14.96;88.03
15884;BME280;8040;50.254;10.960;2023-10-08T09:54:17;99059.91;;;15.09;87.69
15884;BME280;8040;50.254;10.960;2023-10-08T09:56:46;99057.72;;;15.11;87.46
15884;BME280;8040;50.254;10.960;2023-10-08T09:59:13;99074.16;;;15.20;86.14
15884;BME280;8040;50.254;10.960;2023-10-08T10:01:41;99049.50;;;15.11;85.81
15884;BME280;8040;50.254;10.960;2023-10-08T10:04:11;99078.94;;;15.14;85.38
15884;BME280;8040;50.254;10.960;2023-10-08T10:06:37;99065.19;;;15.06;84.88
15884;BME280;8040;50.254;10.960;2023-10-08T10:09:04;99058.09;;;15.18;84.01
15884;BME280;8040;50.254;10.960;2023-10-08T10:11:47;99067.78;;;15.24;83.64
15884;BME280;8040;50.254;10.960;2023-10-08T10:14:13;99101.44;;;15.11;82.21
15884;BME280;8040;50.254;10.960;2023-10-08T10:16:39;99065.19;;;15.06;82.75
15884;BME280;8040;50.254;10.960;2023-10-08T10:19:16;99078.00;;;15.19;82.56
15884;BME280;8040;50.254;10.960;2023-10-08T10:21:43;99095.91;;;15.25;82.42
15884;BME280;8040;50.254;10.960;2023-10-08T10:24:22;99086.19;;;15.32;82.79
15884;BME280;8040;50.254;10.960;2023-10-08T10:26:48;99070.91;;;14.96;82.20
15884;BME280;8040;50.254;10.960;2023-10-08T10:29:18;99027.91;;;14.66;83.34
15884;BME280;8040;50.254;10.960;2023-10-08T10:31:52;99062.59;;;15.01;83.46
15884;BME280;8040;50.254;10.960;2023-10-08T10:34:27;99094.59;;;15.22;83.14
15884;BME280;8040;50.254;10.960;2023-10-08T10:36:55;99095.63;;;15.13;80.20
15884;BME280;8040;50.254;10.960;2023-10-08T10:39:24;99075.59;;;14.82;80.67
15884;BME280;8040;50.254;10.960;2023-10-08T10:41:57;99130.78;;;15.06;80.94
15884;BME280;8040;50.254;10.960;2023-10-08T10:44:25;99146.66;;;15.17;80.22
15884;BME280;8040;50.254;10.960;2023-10-08T10:46:51;99143.22;;;15.12;81.16
15884;BME280;8040;50.254;10.960;2023-10-08T10:49:20;99139.44;;;14.86;78.16
15884;BME280;8040;50.254;10.960;2023-10-08T10:51:57;99138.50;;;14.77;78.83
15884;BME280;8040;50.254;10.960;2023-10-08T10:54:24;99156.59;;;15.00;79.05
15884;BME280;8040;50.254;10.960;2023-10-08T10:56:50;99160.56;;;14.94;79.21
15884;BME280;8040;50.254;10.960;2023-10-08T10:59:35;99139.81;;;14.79;79.13
15884;BME280;8040;50.254;10.960;2023-10-08T11:02:03;99161.38;;;14.81;78.56
15884;BME280;8040;50.254;10.960;2023-10-08T11:04:47;99176.06;;;14.85;77.81
15884;BME280;8040;50.254;10.960;2023-10-08T11:07:19;99187.28;;;14.70;77.56
15884;BME280;8040;50.254;10.960;2023-10-08T11:09:49;99176.34;;;14.70;77.55
15884;BME280;8040;50.254;10.960;2023-10-08T11:12:18;99177.06;;;14.62;76.85
15884;BME280;8040;50.254;10.960;2023-10-08T11:14:57;99168.97;;;14.57;77.08
15884;BME280;8040;50.254;10.960;2023-10-08T11:17:24;99191.09;;;14.42;76.82
15884;BME280;8040;50.254;10.960;2023-10-08T11:19:51;99206.78;;;14.50;77.27
15884;BME280;8040;50.254;10.960;2023-10-08T11:22:20;99207.00;;;14.53;77.99
15884;BME280;8040;50.254;10.960;2023-10-08T11:24:48;99204.75;;;14.42;79.26
15884;BME280;8040;50.254;10.960;2023-10-08T11:27:16;99197.88;;;14.12;80.34
15884;BME280;8040;50.254;10.960;2023-10-08T11:29:47;99171.31;;;13.86;80.98
15884;BME280;8040;50.254;10.960;2023-10-08T11:32:15;99186.41;;;13.97;82.19
15884;BME280;8040;50.254;10.960;2023-10-08T11:34:47;99147.97;;;14.12;83.69
15884;BME280;8040;50.254;10.960;2023-10-08T11:37:33;99152.88;;;14.42;84.78
15884;BME280;8040;50.254;10.960;2023-10-08T11:40:00;99140.25;;;14.59;84.98
15884;BME280;8040;50.254;10.960;2023-10-08T11:42:34;99127.47;;;14.82;85.92
15884;BME280;8040;50.254;10.960;2023-10-08T11:45:00;99108.38;;;14.82;85.36
15884;BME280;8040;50.254;10.960;2023-10-08T11:47:46;99145.66;;;15.13;85.71
15884;BME280;8040;50.254;10.960;2023-10-08T11:50:17;99135.84;;;14.99;86.02
15884;BME280;8040;50.254;10.960;2023-10-08T11:52:47;99151.75;;;14.97;83.61
15884;BME280;8040;50.254;10.960;2023-10-08T11:55:15;99176.13;;;15.07;83.59
15884;BME280;8040;50.254;10.960;2023-10-08T11:57:47;99190.91;;;15.06;84.75
15884;BME280;8040;50.254;10.960;2023-10-08T12:00:15;99208.41;;;14.91;84.16
15884;BME280;8040;50.254;10.960;2023-10-08T12:02:51;99213.78;;;14.83;83.67
15884;BME280;8040;50.254;10.960;2023-10-08T12:05:20;99168.59;;;14.18;81.46
15884;BME280;8040;50.254;10.960;2023-10-08T12:07:52;99169.75;;;13.98;84.33
15884;BME280;8040;50.254;10.960;2023-10-08T12:10:19;99181.00;;;14.10;85.74
15884;BME280;8040;50.254;10.960;2023-10-08T12:12:54;99215.94;;;14.27;85.83
15884;BME280;8040;50.254;10.960;2023-10-08T12:15:20;99203.53;;;14.34;86.93
15884;BME280;8040;50.254;10.960;2023-10-08T12:17:49;99193.09;;;14.23;86.83
15884;BME280;8040;50.254;10.960;2023-10-08T12:20:37;99206.03;;;14.31;87.05
15884;BME280;8040;50.254;10.960;2023-10-08T12:23:04;99182.81;;;14.15;86.00
15884;BME280;8040;50.254;10.960;2023-10-08T12:25:30;99177.78;;;14.08;86.51
15884;BME280;8040;50.254;10.960;2023-10-08T12:27:58;99166.97;;;14.17;86.65
15884;BME280;8040;50.254;10.960;2023-10-08T12:30:27;99191.09;;;14.42;86.94
15884;BME280;8040;50.254;10.960;2023-10-08T12:32:59;99183.00;;;14.37;86.49
15884;BME280;8040;50.254;10.960;2023-10-08T12:35:26;99194.03;;;14.59;86.00
15884;BME280;8040;50.254;10.960;2023-10-08T12:37:51;99193.25;;;14.72;86.05
15884;BME280;8040;50.254;10.960;2023-10-08T12:40:17;99182.13;;;14.82;85.38
15884;BME280;8040;50.254;10.960;2023-10-08T12:42:51;99168.66;;;14.85;84.29
15884;BME280;8040;50.254;10.960;2023-10-08T12:45:18;99177.88;;;14.89;83.27
15884;BME280;8040;50.254;10.960;2023-10-08T12:47:50;99180.28;;;14.64;80.49
15884;BME280;8040;50.254;10.960;2023-10-08T12:50:17;99207.91;;;14.76;81.63
15884;BME280;8040;50.254;10.960;2023-10-08T12:52:49;99215.81;;;14.91;82.93
15884;BME280;8040;50.254;10.960;2023-10-08T12:55:23;99188.06;;;14.97;83.62
15884;BME280;8040;50.254;10.960;2023-10-08T12:57:52;99186.47;;;14.83;80.71
15884;BME280;8040;50.254;10.960;2023-10-08T13:00:28;99199.31;;;14.96;82.26
15884;BME280;8040;50.254;10.960;2023-10-08T13:02:54;99148.66;;;14.76;81.46
15884;BME280;8040;50.254;10.960;2023-10-08T13:05:22;99143.66;;;14.78;81.40
15884;BME280;8040;50.254;10.960;2023-10-08T13:07:57;99169.44;;;15.13;81.07
15884;BME280;8040;50.254;10.960;2023-10-08T13:10:29;99109.00;;;14.65;79.41
15884;BME280;8040;50.254;10.960;2023-10-08T13:12:56;99164.97;;;15.17;79.31
15884;BME280;8040;50.254;10.960;2023-10-08T13:15:22;99168.31;;;15.14;79.11
15884;BME280;8040;50.254;10.960;2023-10-08T13:17:51;99141.34;;;14.85;77.19
15884;BME280;8040;50.254;10.960;2023-10-08T13:20:16;99150.44;;;14.94;77.62
15884;BME280;8040;50.254;10.960;2023-10-08T13:22:43;99137.72;;;14.90;78.42